sensor_id;sensor_type;location;lat;lon;timestamp;pressure;altitude;pressure_sealevel;temperature;humidity
22333;BME280;11334;36.986;-121.936;2023-06-10T00:00:43;101071.97;;;31.17;34.36
22333;BME280;11334;36.986;-121.936;2023-06-10T00:03:10;101080.97;;;31.22;34.76
22333;BME280;11334;36.986;-121.936;2023-06-10T00:05:36;101082.88;;;31.32;34.62
22333;BME280;11334;36.986;-121.936;2023-06-10T00:08:07;101088.03;;;31.43;34.64
22333;BME280;11334;36.986;-121.936;2023-06-10T00:10:34;101081.22;;;31.36;34.29
22333;BME280;11334;36.986;-121.936;2023-06-10T00:13:05;101071.88;;;31.42;34.42
22333;BME280;11334;36.986;-121.936;2023-06-10T00:15:34;101083.97;;;31.74;33.67
22333;BME280;11334;36.986;-121.936;2023-06-10T00:18:04;101081.81;;;31.71;33.49
22333;BME280;11334;36.986;-121.936;2023-06-10T00:20:30;101088.75;;;31.58;33.52
22333;BME280;11334;36.986;-121.936;2023-06-10T00:22:58;101077.06;;;31.43;33.93
22333;BME280;11334;36.986;-121.936;2023-06-10T00:25:27;101092.88;;;31.56;33.77
22333;BME280;11334;36.986;-121.936;2023-06-10T00:27:55;101085.94;;;31.68;33.36
22333;BME280;11334;36.986;-121.936;2023-06-10T00:30:21;101082.66;;;31.66;33.35
22333;BME280;11334;36.986;-121.936;2023-06-10T00:32:48;101084.34;;;31.57;34.13
22333;BME280;11334;36.986;-121.936;2023-06-10T00:35:14;101078.22;;;31.70;33.26
22333;BME280;11334;36.986;-121.936;2023-06-10T00:37:40;101084.25;;;32.10;32.99
22333;BME280;11334;36.986;-121.936;2023-06-10T00:40:07;101077.09;;;32.09;31.81
22333;BME280;11334;36.986;-121.936;2023-06-10T00:42:35;101075.25;;;32.00;32.22
22333;BME280;11334;36.986;-121.936;2023-06-10T00:45:01;101078.47;;;31.79;32.97
22333;BME280;11334;36.986;-121.936;2023-06-10T00:47:28;101078.84;;;31.62;32.74
22333;BME280;11334;36.986;-121.936;2023-06-10T00:49:55;101075.78;;;31.31;32.93
22333;BME280;11334;36.986;-121.936;2023-06-10T00:52:22;101070.66;;;31.10;33.38
22333;BME280;11334;36.986;-121.936;2023-06-10T00:54:53;101068.06;;;30.70;34.06
22333;BME280;11334;36.986;-121.936;2023-06-10T00:57:19;101072.19;;;30.63;34.98
22333;BME280;11334;36.986;-121.936;2023-06-10T00:59:49;101064.63;;;30.35;34.84
22333;BME280;11334;36.986;-121.936;2023-06-10T01:02:15;101077.22;;;29.97;35.61
22333;BME280;11334;36.986;-121.936;2023-06-10T01:04:42;101074.47;;;30.07;35.57
22333;BME280;11334;36.986;-121.936;2023-06-10T01:07:23;101077.50;;;30.05;35.38
22333;BME280;11334;36.986;-121.936;2023-06-10T01:10:05;101074.22;;;29.74;35.65
22333;BME280;11334;36.986;-121.936;2023-06-10T01:12:40;101059.94;;;29.52;35.71
22333;BME280;11334;36.986;-121.936;2023-06-10T01:15:08;101065.97;;;29.54;36.65
22333;BME280;11334;36.986;-121.936;2023-06-10T01:17:59;101062.09;;;29.40;35.80
22333;BME280;11334;36.986;-121.936;2023-06-10T01:20:29;101072.16;;;29.15;36.72
22333;BME280;11334;36.986;-121.936;2023-06-10T01:22:55;101075.25;;;28.73;37.00
22333;BME280;11334;36.986;-121.936;2023-06-10T01:25:24;101077.81;;;28.48;37.76
22333;BME280;11334;36.986;-121.936;2023-06-10T01:28:17;101072.56;;;28.32;37.64
22333;BME280;11334;36.986;-121.936;2023-06-10T01:33:43;101069.31;;;27.68;39.14
22333;BME280;11334;36.986;-121.936;2023-06-10T01:36:12;101073.53;;;27.54;39.42
22333;BME280;11334;36.986;-121.936;2023-06-10T01:38:47;101069.69;;;27.29;40.02
22333;BME280;11334;36.986;-121.936;2023-06-10T01:41:18;101064.78;;;27.05;40.53
22333;BME280;11334;36.986;-121.936;2023-06-10T01:43:45;101054.19;;;26.82;41.21
22333;BME280;11334;36.986;-121.936;2023-06-10T01:46:12;101055.22;;;26.39;41.91
22333;BME280;11334;36.986;-121.936;2023-06-10T01:48:38;101073.78;;;26.26;42.24
22333;BME280;11334;36.986;-121.936;2023-06-10T01:51:05;101057.09;;;26.17;42.09
22333;BME280;11334;36.986;-121.936;2023-06-10T01:53:32;101064.63;;;25.99;42.78
22333;BME280;11334;36.986;-121.936;2023-06-10T01:55:58;101060.09;;;25.72;43.80
22333;BME280;11334;36.986;-121.936;2023-06-10T01:58:24;101062.03;;;25.44;44.48
22333;BME280;11334;36.986;-121.936;2023-06-10T02:00:51;101063.75;;;25.34;44.97
22333;BME280;11334;36.986;-121.936;2023-06-10T02:03:17;101074.47;;;25.12;45.35
22333;BME280;11334;36.986;-121.936;2023-06-10T02:05:44;101071.59;;;24.91;46.37
22333;BME280;11334;36.986;-121.936;2023-06-10T02:08:13;101061.63;;;24.69;47.50
22333;BME280;11334;36.986;-121.936;2023-06-10T02:10:39;101055.88;;;24.54;48.04
22333;BME280;11334;36.986;-121.936;2023-06-10T02:13:06;101070.88;;;24.23;49.08
22333;BME280;11334;36.986;-121.936;2023-06-10T02:15:33;101066.59;;;24.04;49.46
22333;BME280;11334;36.986;-121.936;2023-06-10T02:17:59;101070.00;;;23.88;49.72
22333;BME280;11334;36.986;-121.936;2023-06-10T02:20:26;101063.75;;;23.77;49.82
22333;BME280;11334;36.986;-121.936;2023-06-10T02:22:52;101071.50;;;23.62;50.70
22333;BME280;11334;36.986;-121.936;2023-06-10T02:25:19;101069.38;;;23.23;51.57
22333;BME280;11334;36.986;-121.936;2023-06-10T02:27:45;101075.94;;;23.16;52.42
22333;BME280;11334;36.986;-121.936;2023-06-10T02:30:12;101074.84;;;23.06;52.66
22333;BME280;11334;36.986;-121.936;2023-06-10T02:32:39;101082.41;;;22.80;53.38
22333;BME280;11334;36.986;-121.936;2023-06-10T02:35:06;101076.25;;;22.73;53.84
22333;BME280;11334;36.986;-121.936;2023-06-10T02:37:34;101083.09;;;22.57;54.29
22333;BME280;11334;36.986;-121.936;2023-06-10T02:40:01;101078.81;;;22.50;54.64
22333;BME280;11334;36.986;-121.936;2023-06-10T02:42:27;101084.00;;;22.51;54.79
22333;BME280;11334;36.986;-121.936;2023-06-10T02:44:53;101076.88;;;22.39;55.37
22333;BME280;11334;36.986;-121.936;2023-06-10T02:47:20;101084.06;;;22.27;55.19
22333;BME280;11334;36.986;-121.936;2023-06-10T02:49:46;101066.13;;;22.15;55.87
22333;BME280;11334;36.986;-121.936;2023-06-10T02:52:12;101076.38;;;22.07;55.99
22333;BME280;11334;36.986;-121.936;2023-06-10T02:54:38;101077.38;;;22.12;56.10
22333;BME280;11334;36.986;-121.936;2023-06-10T02:57:05;101082.59;;;22.07;56.15
22333;BME280;11334;36.986;-121.936;2023-06-10T02:59:31;101083.69;;;22.00;56.13
22333;BME280;11334;36.986;-121.936;2023-06-10T03:01:58;101081.03;;;21.93;56.36
22333;BME280;11334;36.986;-121.936;2023-06-10T03:04:26;101077.19;;;21.83;56.81
22333;BME280;11334;36.986;-121.936;2023-06-10T03:06:55;101071.25;;;21.75;57.27
22333;BME280;11334;36.986;-121.936;2023-06-10T03:09:21;101076.09;;;21.66;57.40
22333;BME280;11334;36.986;-121.936;2023-06-10T03:11:48;101074.56;;;21.53;57.61
22333;BME280;11334;36.986;-121.936;2023-06-10T03:14:14;101077.44;;;21.51;57.90
22333;BME280;11334;36.986;-121.936;2023-06-10T03:16:40;101075.03;;;21.43;58.43
22333;BME280;11334;36.986;-121.936;2023-06-10T03:19:08;101074.22;;;21.43;57.87
22333;BME280;11334;36.986;-121.936;2023-06-10T03:21:35;101073.47;;;21.23;58.67
22333;BME280;11334;36.986;-121.936;2023-06-10T03:24:03;101071.22;;;21.20;58.99
22333;BME280;11334;36.986;-121.936;2023-06-10T03:26:30;101080.34;;;21.19;59.11
22333;BME280;11334;36.986;-121.936;2023-06-10T03:28:56;101080.97;;;21.15;59.52
22333;BME280;11334;36.986;-121.936;2023-06-10T03:31:22;101078.16;;;21.03;59.94
22333;BME280;11334;36.986;-121.936;2023-06-10T03:33:50;101076.28;;;20.97;59.90
22333;BME280;11334;36.986;-121.936;2023-06-10T03:36:16;101079.88;;;20.85;60.61
22333;BME280;11334;36.986;-121.936;2023-06-10T03:38:43;101077.25;;;20.79;60.74
22333;BME280;11334;36.986;-121.936;2023-06-10T03:41:09;101084.31;;;20.73;61.10
22333;BME280;11334;36.986;-121.936;2023-06-10T03:43:37;101079.31;;;20.70;61.06
22333;BME280;11334;36.986;-121.936;2023-06-10T03:46:04;101074.19;;;20.62;61.47
22333;BME280;11334;36.986;-121.936;2023-06-10T03:48:30;101070.88;;;20.48;62.09
22333;BME280;11334;36.986;-121.936;2023-06-10T03:50:57;101075.06;;;20.44;62.36
22333;BME280;11334;36.986;-121.936;2023-06-10T03:53:24;101074.44;;;20.35;62.47
22333;BME280;11334;36.986;-121.936;2023-06-10T03:55:50;101067.22;;;20.29;62.99
22333;BME280;11334;36.986;-121.936;2023-06-10T03:58:16;101070.13;;;20.28;63.00
22333;BME280;11334;36.986;-121.936;2023-06-10T04:00:43;101074.69;;;20.21;63.30
22333;BME280;11334;36.986;-121.936;2023-06-10T04:03:11;101070.78;;;20.17;63.15
22333;BME280;11334;36.986;-121.936;2023-06-10T04:05:40;101071.00;;;20.03;63.36
22333;BME280;11334;36.986;-121.936;2023-06-10T04:08:08;101075.16;;;19.93;63.67
22333;BME280;11334;36.986;-121.936;2023-06-10T04:10:34;101080.53;;;19.93;64.17
22333;BME280;11334;36.986;-121.936;2023-06-10T04:13:01;101077.84;;;19.93;63.89
22333;BME280;11334;36.986;-121.936;2023-06-10T04:15:27;101081.16;;;19.88;64.18
22333;BME280;11334;36.986;-121.936;2023-06-10T04:17:54;101082.38;;;19.86;64.37
22333;BME280;11334;36.986;-121.936;2023-06-10T04:20:21;101077.44;;;19.83;64.22
22333;BME280;11334;36.986;-121.936;2023-06-10T04:22:47;101082.16;;;19.74;64.47
22333;BME280;11334;36.986;-121.936;2023-06-10T04:25:13;101089.19;;;19.75;64.74
22333;BME280;11334;36.986;-121.936;2023-06-10T04:27:39;101092.50;;;19.64;65.23
22333;BME280;11334;36.986;-121.936;2023-06-10T04:30:06;101093.13;;;19.60;65.60
22333;BME280;11334;36.986;-121.936;2023-06-10T04:32:32;101079.88;;;19.59;65.41
22333;BME280;11334;36.986;-121.936;2023-06-10T04:35:00;101082.97;;;19.49;65.67
22333;BME280;11334;36.986;-121.936;2023-06-10T04:37:26;101080.91;;;19.51;65.76
22333;BME280;11334;36.986;-121.936;2023-06-10T04:39:54;101074.69;;;19.44;66.14
22333;BME280;11334;36.986;-121.936;2023-06-10T04:42:21;101080.28;;;19.43;65.62
22333;BME280;11334;36.986;-121.936;2023-06-10T04:44:47;101088.13;;;19.38;66.08
22333;BME280;11334;36.986;-121.936;2023-06-10T04:47:13;101079.44;;;19.36;66.05
22333;BME280;11334;36.986;-121.936;2023-06-10T04:49:39;101095.97;;;19.33;66.34
22333;BME280;11334;36.986;-121.936;2023-06-10T04:52:06;101090.16;;;19.30;67.00
22333;BME280;11334;36.986;-121.936;2023-06-10T04:54:32;101097.41;;;19.29;66.52
22333;BME280;11334;36.986;-121.936;2023-06-10T04:56:58;101094.50;;;19.24;66.79
22333;BME280;11334;36.986;-121.936;2023-06-10T04:59:25;101093.50;;;19.25;66.99
22333;BME280;11334;36.986;-121.936;2023-06-10T05:01:52;101102.78;;;19.23;67.07
22333;BME280;11334;36.986;-121.936;2023-06-10T05:04:18;101100.47;;;19.13;67.55
22333;BME280;11334;36.986;-121.936;2023-06-10T05:06:44;101100.66;;;19.12;67.73
22333;BME280;11334;36.986;-121.936;2023-06-10T05:09:10;101100.91;;;19.10;67.93
22333;BME280;11334;36.986;-121.936;2023-06-10T05:11:37;101105.00;;;19.06;68.41
22333;BME280;11334;36.986;-121.936;2023-06-10T05:14:03;101113.88;;;19.07;68.52
22333;BME280;11334;36.986;-121.936;2023-06-10T05:16:29;101113.47;;;19.03;68.33
22333;BME280;11334;36.986;-121.936;2023-06-10T05:18:55;101118.72;;;18.84;69.14
22333;BME280;11334;36.986;-121.936;2023-06-10T05:21:22;101112.13;;;18.87;69.40
22333;BME280;11334;36.986;-121.936;2023-06-10T05:23:48;101102.59;;;18.78;69.20
22333;BME280;11334;36.986;-121.936;2023-06-10T05:26:14;101112.94;;;18.81;69.47
22333;BME280;11334;36.986;-121.936;2023-06-10T05:28:42;101115.63;;;18.81;69.92
22333;BME280;11334;36.986;-121.936;2023-06-10T05:31:09;101113.34;;;18.78;69.65
22333;BME280;11334;36.986;-121.936;2023-06-10T05:33:35;101109.81;;;18.77;69.29
22333;BME280;11334;36.986;-121.936;2023-06-10T05:36:02;101109.56;;;18.72;69.88
22333;BME280;11334;36.986;-121.936;2023-06-10T05:38:28;101112.91;;;18.74;69.58
22333;BME280;11334;36.986;-121.936;2023-06-10T05:40:55;101114.31;;;18.64;70.02
22333;BME280;11334;36.986;-121.936;2023-06-10T05:43:22;101121.94;;;18.61;70.00
22333;BME280;11334;36.986;-121.936;2023-06-10T05:45:48;101121.69;;;18.56;70.44
22333;BME280;11334;36.986;-121.936;2023-06-10T05:48:15;101109.94;;;18.57;70.30
22333;BME280;11334;36.986;-121.936;2023-06-10T05:50:41;101114.47;;;18.56;70.13
22333;BME280;11334;36.986;-121.936;2023-06-10T05:53:10;101104.91;;;18.47;70.55
22333;BME280;11334;36.986;-121.936;2023-06-10T05:55:42;101101.16;;;18.42;70.41
22333;BME280;11334;36.986;-121.936;2023-06-10T05:58:09;101108.63;;;18.46;70.50
22333;BME280;11334;36.986;-121.936;2023-06-10T06:00:35;101104.84;;;18.35;71.45
22333;BME280;11334;36.986;-121.936;2023-06-10T06:03:02;101112.06;;;18.34;71.09
22333;BME280;11334;36.986;-121.936;2023-06-10T06:05:28;101118.06;;;18.36;71.15
22333;BME280;11334;36.986;-121.936;2023-06-10T06:08:01;101112.91;;;18.35;71.21
22333;BME280;11334;36.986;-121.936;2023-06-10T06:10:27;101107.28;;;18.30;71.39
22333;BME280;11334;36.986;-121.936;2023-06-10T06:12:54;101094.94;;;18.35;71.58
22333;BME280;11334;36.986;-121.936;2023-06-10T06:15:20;101095.97;;;18.34;71.45
22333;BME280;11334;36.986;-121.936;2023-06-10T06:17:46;101101.09;;;18.29;71.57
22333;BME280;11334;36.986;-121.936;2023-06-10T06:20:13;101095.50;;;18.24;71.67
22333;BME280;11334;36.986;-121.936;2023-06-10T06:22:39;101094.06;;;18.28;71.67
22333;BME280;11334;36.986;-121.936;2023-06-10T06:25:05;101090.28;;;18.16;71.98
22333;BME280;11334;36.986;-121.936;2023-06-10T06:27:32;101086.50;;;18.04;72.08
22333;BME280;11334;36.986;-121.936;2023-06-10T06:29:58;101099.09;;;18.10;72.32
22333;BME280;11334;36.986;-121.936;2023-06-10T06:32:25;101103.88;;;18.15;72.10
22333;BME280;11334;36.986;-121.936;2023-06-10T06:34:53;101111.13;;;18.14;72.07
22333;BME280;11334;36.986;-121.936;2023-06-10T06:37:25;101109.69;;;18.18;71.80
22333;BME280;11334;36.986;-121.936;2023-06-10T06:39:53;101109.66;;;18.12;72.11
22333;BME280;11334;36.986;-121.936;2023-06-10T06:42:20;101108.78;;;18.05;72.45
22333;BME280;11334;36.986;-121.936;2023-06-10T06:44:47;101107.44;;;18.01;72.95
22333;BME280;11334;36.986;-121.936;2023-06-10T06:47:13;101102.09;;;18.01;72.76
22333;BME280;11334;36.986;-121.936;2023-06-10T06:49:39;101095.03;;;17.94;73.25
22333;BME280;11334;36.986;-121.936;2023-06-10T06:52:06;101093.38;;;17.93;73.30
22333;BME280;11334;36.986;-121.936;2023-06-10T06:54:32;101087.59;;;17.89;73.41
22333;BME280;11334;36.986;-121.936;2023-06-10T06:56:58;101092.31;;;17.87;73.45
22333;BME280;11334;36.986;-121.936;2023-06-10T06:59:25;101094.59;;;17.90;73.43
22333;BME280;11334;36.986;-121.936;2023-06-10T07:01:51;101105.31;;;17.90;73.79
22333;BME280;11334;36.986;-121.936;2023-06-10T07:04:19;101112.28;;;17.85;73.59
22333;BME280;11334;36.986;-121.936;2023-06-10T07:06:48;101111.25;;;17.86;73.66
22333;BME280;11334;36.986;-121.936;2023-06-10T07:09:14;101101.97;;;17.82;73.68
22333;BME280;11334;36.986;-121.936;2023-06-10T07:11:40;101096.78;;;17.80;73.75
22333;BME280;11334;36.986;-121.936;2023-06-10T07:14:07;101092.63;;;17.78;73.84
22333;BME280;11334;36.986;-121.936;2023-06-10T07:16:34;101095.72;;;17.75;74.11
22333;BME280;11334;36.986;-121.936;2023-06-10T07:19:00;101098.72;;;17.66;74.21
22333;BME280;11334;36.986;-121.936;2023-06-10T07:21:26;101103.25;;;17.65;74.66
22333;BME280;11334;36.986;-121.936;2023-06-10T07:23:54;101104.78;;;17.53;75.09
22333;BME280;11334;36.986;-121.936;2023-06-10T07:26:22;101109.72;;;17.50;75.28
22333;BME280;11334;36.986;-121.936;2023-06-10T07:28:48;101108.50;;;17.52;75.07
22333;BME280;11334;36.986;-121.936;2023-06-10T07:31:14;101103.72;;;17.48;75.58
22333;BME280;11334;36.986;-121.936;2023-06-10T07:33:41;101110.78;;;17.55;75.24
22333;BME280;11334;36.986;-121.936;2023-06-10T07:36:07;101099.38;;;17.47;75.42
22333;BME280;11334;36.986;-121.936;2023-06-10T07:38:33;101100.72;;;17.57;75.31
22333;BME280;11334;36.986;-121.936;2023-06-10T07:40:59;101105.03;;;17.58;75.24
22333;BME280;11334;36.986;-121.936;2023-06-10T07:43:26;101111.19;;;17.52;75.53
22333;BME280;11334;36.986;-121.936;2023-06-10T07:45:52;101098.09;;;17.43;75.82
22333;BME280;11334;36.986;-121.936;2023-06-10T07:48:18;101095.09;;;17.52;75.60
22333;BME280;11334;36.986;-121.936;2023-06-10T07:50:45;101091.34;;;17.47;75.99
22333;BME280;11334;36.986;-121.936;2023-06-10T07:53:11;101080.56;;;17.40;76.25
22333;BME280;11334;36.986;-121.936;2023-06-10T07:55:37;101075.63;;;17.44;76.15
22333;BME280;11334;36.986;-121.936;2023-06-10T07:58:03;101070.41;;;17.36;76.35
22333;BME280;11334;36.986;-121.936;2023-06-10T08:00:30;101073.56;;;17.40;76.03
22333;BME280;11334;36.986;-121.936;2023-06-10T08:02:56;101075.72;;;17.30;76.64
22333;BME280;11334;36.986;-121.936;2023-06-10T08:05:22;101080.47;;;17.34;76.71
22333;BME280;11334;36.986;-121.936;2023-06-10T08:07:48;101064.38;;;17.28;76.52
22333;BME280;11334;36.986;-121.936;2023-06-10T08:10:15;101061.44;;;17.23;76.61
22333;BME280;11334;36.986;-121.936;2023-06-10T08:12:41;101057.72;;;17.24;76.80
22333;BME280;11334;36.986;-121.936;2023-06-10T08:15:07;101066.78;;;17.23;76.88
22333;BME280;11334;36.986;-121.936;2023-06-10T08:17:34;101063.91;;;17.24;76.89
22333;BME280;11334;36.986;-121.936;2023-06-10T08:20:01;101060.63;;;17.22;77.20
22333;BME280;11334;36.986;-121.936;2023-06-10T08:22:28;101059.75;;;17.22;77.44
22333;BME280;11334;36.986;-121.936;2023-06-10T08:24:55;101065.31;;;17.20;77.26
22333;BME280;11334;36.986;-121.936;2023-06-10T08:27:22;101063.84;;;17.18;77.44
22333;BME280;11334;36.986;-121.936;2023-06-10T08:29:48;101062.66;;;17.20;77.47
22333;BME280;11334;36.986;-121.936;2023-06-10T08:32:14;101064.25;;;17.15;77.77
22333;BME280;11334;36.986;-121.936;2023-06-10T08:34:40;101077.00;;;17.13;78.15
22333;BME280;11334;36.986;-121.936;2023-06-10T08:37:07;101068.75;;;17.14;78.25
22333;BME280;11334;36.986;-121.936;2023-06-10T08:39:33;101063.38;;;17.14;78.15
22333;BME280;11334;36.986;-121.936;2023-06-10T08:44:46;101072.94;;;17.03;79.01
22333;BME280;11334;36.986;-121.936;2023-06-10T08:49:43;101058.16;;;16.92;79.12
22333;BME280;11334;36.986;-121.936;2023-06-10T08:52:15;101062.53;;;16.93;79.59
22333;BME280;11334;36.986;-121.936;2023-06-10T08:55:06;101066.31;;;16.84;79.77
22333;BME280;11334;36.986;-121.936;2023-06-10T08:57:36;101067.16;;;16.85;79.74
22333;BME280;11334;36.986;-121.936;2023-06-10T09:00:03;101060.53;;;16.81;80.31
22333;BME280;11334;36.986;-121.936;2023-06-10T09:02:31;101060.53;;;16.81;80.34
22333;BME280;11334;36.986;-121.936;2023-06-10T09:05:02;101057.50;;;16.70;80.86
22333;BME280;11334;36.986;-121.936;2023-06-10T09:07:30;101044.94;;;16.70;81.11
22333;BME280;11334;36.986;-121.936;2023-06-10T09:09:57;101042.25;;;16.70;80.83
22333;BME280;11334;36.986;-121.936;2023-06-10T09:12:25;101035.72;;;16.73;80.69
22333;BME280;11334;36.986;-121.936;2023-06-10T09:14:51;101036.19;;;16.76;80.36
22333;BME280;11334;36.986;-121.936;2023-06-10T09:17:17;101039.78;;;16.69;80.45
22333;BME280;11334;36.986;-121.936;2023-06-10T09:19:44;101034.63;;;16.67;80.46
22333;BME280;11334;36.986;-121.936;2023-06-10T09:22:11;101039.97;;;16.67;80.82
22333;BME280;11334;36.986;-121.936;2023-06-10T09:24:39;101036.47;;;16.67;81.07
22333;BME280;11334;36.986;-121.936;2023-06-10T09:27:07;101025.78;;;16.67;81.10
22333;BME280;11334;36.986;-121.936;2023-06-10T09:29:51;101028.28;;;16.68;80.82
22333;BME280;11334;36.986;-121.936;2023-06-10T09:32:18;101031.63;;;16.56;81.07
22333;BME280;11334;36.986;-121.936;2023-06-10T09:34:45;101029.66;;;16.64;81.10
22333;BME280;11334;36.986;-121.936;2023-06-10T09:37:12;101024.47;;;16.63;81.12
22333;BME280;11334;36.986;-121.936;2023-06-10T09:39:40;101026.28;;;16.56;81.37
22333;BME280;11334;36.986;-121.936;2023-06-10T09:42:16;101044.06;;;16.63;81.23
22333;BME280;11334;36.986;-121.936;2023-06-10T09:44:50;101032.97;;;16.66;81.37
22333;BME280;11334;36.986;-121.936;2023-06-10T09:47:39;101033.97;;;16.65;81.30
22333;BME280;11334;36.986;-121.936;2023-06-10T09:50:06;101034.34;;;16.62;81.37
22333;BME280;11334;36.986;-121.936;2023-06-10T09:52:33;101033.16;;;16.65;81.86
22333;BME280;11334;36.986;-121.936;2023-06-10T09:55:01;101012.03;;;16.55;81.86
22333;BME280;11334;36.986;-121.936;2023-06-10T09:57:31;101023.00;;;16.60;82.01
22333;BME280;11334;36.986;-121.936;2023-06-10T10:00:09;101017.47;;;16.62;82.09
22333;BME280;11334;36.986;-121.936;2023-06-10T10:02:49;101015.19;;;16.59;82.28
22333;BME280;11334;36.986;-121.936;2023-06-10T10:05:17;100999.03;;;16.52;82.45
22333;BME280;11334;36.986;-121.936;2023-06-10T10:07:44;101010.41;;;16.54;82.62
22333;BME280;11334;36.986;-121.936;2023-06-10T10:10:12;101012.69;;;16.57;82.45
22333;BME280;11334;36.986;-121.936;2023-06-10T10:12:40;101015.84;;;16.61;82.35
22333;BME280;11334;36.986;-121.936;2023-06-10T10:15:08;101012.13;;;16.62;82.29
22333;BME280;11334;36.986;-121.936;2023-06-10T10:17:40;101012.69;;;16.57;82.55
22333;BME280;11334;36.986;-121.936;2023-06-10T10:20:08;101002.19;;;16.56;82.82
22333;BME280;11334;36.986;-121.936;2023-06-10T10:22:41;100993.81;;;16.44;83.00
22333;BME280;11334;36.986;-121.936;2023-06-10T10:25:16;100998.03;;;16.53;83.53
22333;BME280;11334;36.986;-121.936;2023-06-10T10:27:48;100988.91;;;16.48;83.62
22333;BME280;11334;36.986;-121.936;2023-06-10T10:30:17;100987.53;;;16.52;83.65
22333;BME280;11334;36.986;-121.936;2023-06-10T10:33:42;100986.50;;;16.53;84.07
22333;BME280;11334;36.986;-121.936;2023-06-10T10:35:49;100973.97;;;16.53;83.87
22333;BME280;11334;36.986;-121.936;2023-06-10T10:38:16;100974.59;;;16.55;83.89
22333;BME280;11334;36.986;-121.936;2023-06-10T10:40:44;100982.06;;;16.60;83.88
22333;BME280;11334;36.986;-121.936;2023-06-10T10:43:11;100964.34;;;16.59;83.82
22333;BME280;11334;36.986;-121.936;2023-06-10T10:45:37;100976.31;;;16.63;83.90
22333;BME280;11334;36.986;-121.936;2023-06-10T10:48:08;100975.31;;;16.64;83.86
22333;BME280;11334;36.986;-121.936;2023-06-10T10:50:38;100978.63;;;16.66;83.84
22333;BME280;11334;36.986;-121.936;2023-06-10T10:53:06;100970.53;;;16.59;84.12
22333;BME280;11334;36.986;-121.936;2023-06-10T10:55:33;100980.03;;;16.62;84.33
22333;BME280;11334;36.986;-121.936;2023-06-10T10:58:03;100969.97;;;16.64;84.04
22333;BME280;11334;36.986;-121.936;2023-06-10T11:00:35;100963.59;;;16.65;83.95
22333;BME280;11334;36.986;-121.936;2023-06-10T11:03:08;100962.31;;;16.61;84.38
22333;BME280;11334;36.986;-121.936;2023-06-10T11:05:44;100970.63;;;16.66;84.30
22333;BME280;11334;36.986;-121.936;2023-06-10T11:08:14;100964.47;;;16.72;83.51
22333;BME280;11334;36.986;-121.936;2023-06-10T11:10:53;100968.44;;;16.76;83.11
22333;BME280;11334;36.986;-121.936;2023-06-10T11:13:20;100959.56;;;16.75;83.03
22333;BME280;11334;36.986;-121.936;2023-06-10T11:15:49;100968.25;;;16.77;83.10
22333;BME280;11334;36.986;-121.936;2023-06-10T11:18:24;100961.69;;;16.79;82.80
22333;BME280;11334;36.986;-121.936;2023-06-10T11:21:04;100962.31;;;16.81;82.57
22333;BME280;11334;36.986;-121.936;2023-06-10T11:23:37;100959.81;;;16.80;82.23
22333;BME280;11334;36.986;-121.936;2023-06-10T11:29:09;100956.53;;;16.78;82.10
22333;BME280;11334;36.986;-121.936;2023-06-10T11:31:46;100957.53;;;16.77;82.17
22333;BME280;11334;36.986;-121.936;2023-06-10T11:34:15;100955.50;;;16.79;82.09
22333;BME280;11334;36.986;-121.936;2023-06-10T11:36:49;100950.31;;;16.77;81.88
22333;BME280;11334;36.986;-121.936;2023-06-10T11:39:16;100941.88;;;16.74;81.72
22333;BME280;11334;36.986;-121.936;2023-06-10T11:41:43;100942.69;;;16.75;82.25
22333;BME280;11334;36.986;-121.936;2023-06-10T11:44:12;100933.84;;;16.74;82.12
22333;BME280;11334;36.986;-121.936;2023-06-10T11:46:39;100914.22;;;16.67;81.77
22333;BME280;11334;36.986;-121.936;2023-06-10T11:49:08;100927.03;;;16.72;81.86
22333;BME280;11334;36.986;-121.936;2023-06-10T11:51:36;100922.06;;;16.69;82.23
22333;BME280;11334;36.986;-121.936;2023-06-10T11:54:03;100917.91;;;16.66;82.50
22333;BME280;11334;36.986;-121.936;2023-06-10T11:56:31;100920.47;;;16.74;82.14
22333;BME280;11334;36.986;-121.936;2023-06-10T11:58:59;100919.25;;;16.76;82.09
22333;BME280;11334;36.986;-121.936;2023-06-10T12:01:30;100921.03;;;16.70;82.32
22333;BME280;11334;36.986;-121.936;2023-06-10T12:06:24;100923.06;;;16.68;82.88
22333;BME280;11334;36.986;-121.936;2023-06-10T12:08:50;100926.13;;;16.65;82.87
22333;BME280;11334;36.986;-121.936;2023-06-10T12:11:17;100922.44;;;16.66;82.87
22333;BME280;11334;36.986;-121.936;2023-06-10T12:13:48;100919.38;;;16.69;82.73
22333;BME280;11334;36.986;-121.936;2023-06-10T12:16:15;100916.72;;;16.69;82.92
22333;BME280;11334;36.986;-121.936;2023-06-10T12:18:45;100918.75;;;16.67;82.62
22333;BME280;11334;36.986;-121.936;2023-06-10T12:21:23;100919.56;;;16.67;82.64
22333;BME280;11334;36.986;-121.936;2023-06-10T12:24:09;100928.63;;;16.66;82.88
22333;BME280;11334;36.986;-121.936;2023-06-10T12:26:44;100925.69;;;16.61;83.24
22333;BME280;11334;36.986;-121.936;2023-06-10T12:29:17;100925.69;;;16.61;82.99
22333;BME280;11334;36.986;-121.936;2023-06-10T12:32:04;100926.50;;;16.62;82.72
22333;BME280;11334;36.986;-121.936;2023-06-10T12:34:35;100926.69;;;16.60;82.97
22333;BME280;11334;36.986;-121.936;2023-06-10T12:37:06;100916.94;;;16.53;83.12
22333;BME280;11334;36.986;-121.936;2023-06-10T12:39:33;100930.13;;;16.54;83.02